< Cyclone 196004 1960 Season Cyclone 196006 >
Cyclone 196005 (unnamed)
General InformationTrack Information on Google Maps || ResourceGoogle EarthGE AnimationAtom FeedGeoJSON
Detalied Best Track (Time Zone = UTC)
Year Month Day Hour Lat. Long. Pressure (hPa) Wind (kt) Class Image Chart
1960 3 3 11 -13.4 154.5 1003 0 0 -- --
1960 3 3 23 -13.7 154.5 1003 0 0 -- --
1960 3 4 11 -13.9 154.5 1002 0 0 -- --
1960 3 4 17 -14.6 154.3 1000 0 0 -- --
1960 3 4 23 -15.1 153.8 1000 0 0 -- --
1960 3 5 05 -15.3 153.5 1000 0 0 -- --
1960 3 5 11 -15.5 153.2 1000 0 0 -- --
1960 3 5 17 -15.6 152.7 1000 0 0 -- --
1960 3 5 23 -15.7 152.3 1000 0 0 -- --
1960 3 6 05 -15.8 151.8 1000 0 0 -- --
1960 3 6 08 -15.8 151.0 1000 0 0 -- --
1960 3 6 11 -15.9 150.4 1000 0 0 -- --
1960 3 6 17 -15.9 150.1 1000 0 0 -- --
1960 3 6 20 -16.0 149.9 1000 0 0 -- --
1960 3 6 23 -16.1 149.9 1000 0 0 -- --
1960 3 7 05 -16.8 149.6 1000 0 0 -- --
1960 3 7 11 -17.4 149.2 1000 0 0 -- --
1960 3 7 17 -17.9 148.6 1000 0 0 -- --
1960 3 7 23 -18.3 148.0 1000 0 0 -- --
1960 3 8 06 -18.5 147.6 1001 0 0 -- --
1960 3 8 08 -18.5 147.1 1001 0 0 -- --
1960 3 8 11 -18.4 147.2 1001 0 0 -- --
1960 3 8 17 -18.4 147.5 1002 0 0 -- --
1960 3 8 23 -18.5 147.4 1002 0 0 -- --
1960 3 9 05 -18.6 147.2 1002 0 0 -- --
1960 3 9 11 -18.6 146.5 1005 0 0 -- --
< Cyclone 196004 1960 Season Cyclone 196006 >

Help